createdAt,value
2022-11-24T00:01:36.186Z,97542.00
2022-11-24T00:04:08.622Z,97546.00
2022-11-24T00:06:41.843Z,97538.00
2022-11-24T00:09:11.808Z,97535.00
2022-11-24T00:11:41.957Z,97531.00
2022-11-24T00:14:12.807Z,97541.00
2022-11-24T00:16:42.797Z,97544.00
2022-11-24T00:19:19.475Z,97545.00
2022-11-24T00:21:52.410Z,97545.00
2022-11-24T00:24:22.325Z,97541.00
2022-11-24T00:26:52.299Z,97540.00
2022-11-24T00:29:22.303Z,97535.00
2022-11-24T00:31:52.382Z,97541.00
2022-11-24T00:34:22.313Z,97529.00
2022-11-24T00:36:54.806Z,97529.00
2022-11-24T00:39:24.769Z,97535.00
2022-11-24T00:41:54.731Z,97526.00
2022-11-24T00:44:25.317Z,97528.00
2022-11-24T00:46:55.400Z,97530.00
2022-11-24T00:49:25.427Z,97536.00
2022-11-24T00:51:59.077Z,97533.00
2022-11-24T00:54:29.003Z,97540.00
2022-11-24T00:56:58.910Z,97532.00
2022-11-24T00:59:28.813Z,97529.00
2022-11-24T01:01:58.785Z,97535.00
2022-11-24T01:04:28.946Z,97530.00
2022-11-24T01:07:01.424Z,97537.00
2022-11-24T01:09:31.348Z,97533.00
2022-11-24T01:12:04.456Z,97535.00
2022-11-24T01:14:35.919Z,97538.00
2022-11-24T01:17:06.313Z,97541.00
2022-11-24T01:19:36.364Z,97539.00
2022-11-24T01:22:08.895Z,97547.00
2022-11-24T01:24:39.435Z,97542.00
2022-11-24T01:27:09.377Z,97538.00
2022-11-24T01:29:39.282Z,97535.00
2022-11-24T01:32:09.314Z,97549.00
2022-11-24T01:34:39.958Z,97549.00
2022-11-24T01:37:12.869Z,97548.00
2022-11-24T01:39:42.839Z,97559.00
2022-11-24T01:42:12.776Z,97558.00
2022-11-24T01:44:45.189Z,97551.00
2022-11-24T01:47:27.922Z,97548.00
2022-11-24T01:49:59.383Z,97550.00
2022-11-24T01:52:34.755Z,97561.00
2022-11-24T01:55:07.067Z,97555.00
2022-11-24T01:57:39.671Z,97555.00
2022-11-24T02:00:12.103Z,97555.00
2022-11-24T02:02:45.683Z,97559.00
2022-11-24T02:05:20.461Z,97564.00
2022-11-24T02:07:54.312Z,97557.00
2022-11-24T02:10:25.463Z,97562.00
2022-11-24T02:12:57.852Z,97545.00
2022-11-24T02:15:29.008Z,97556.00
2022-11-24T02:17:59.379Z,97553.00
2022-11-24T02:20:30.459Z,97543.00
2022-11-24T02:23:07.360Z,97546.00
2022-11-24T02:25:48.681Z,97542.00
2022-11-24T02:28:24.222Z,97545.00
2022-11-24T02:30:55.560Z,97548.00
2022-11-24T02:33:25.704Z,97550.00
2022-11-24T02:35:56.660Z,97552.00
2022-11-24T02:38:35.245Z,97548.00
2022-11-24T02:41:07.578Z,97550.00
2022-11-24T02:43:43.218Z,97539.00
2022-11-24T02:46:13.696Z,97537.00
2022-11-24T02:48:43.645Z,97543.00
2022-11-24T02:51:13.723Z,97544.00
2022-11-24T02:53:44.073Z,97532.00
2022-11-24T02:56:14.063Z,97549.00
2022-11-24T02:58:46.627Z,97545.00
2022-11-24T03:01:16.784Z,97548.00
2022-11-24T03:03:46.923Z,97549.00
2022-11-24T03:06:16.906Z,97558.00
2022-11-24T03:08:46.958Z,97556.00
2022-11-24T03:11:17.022Z,97560.00
2022-11-24T03:13:49.584Z,97558.00
2022-11-24T03:16:19.542Z,97558.00
2022-11-24T03:18:50.551Z,97566.00
2022-11-24T03:21:20.895Z,97574.00
2022-11-24T03:23:50.771Z,97565.00
2022-11-24T03:26:22.539Z,97569.00
2022-11-24T03:28:57.419Z,97574.00
2022-11-24T03:31:27.549Z,97572.00
2022-11-24T03:33:57.494Z,97564.00
2022-11-24T03:36:27.648Z,97551.00
2022-11-24T03:38:57.553Z,97550.00
2022-11-24T03:41:27.511Z,97545.00
2022-11-24T03:44:00.242Z,97554.00
2022-11-24T03:46:30.244Z,97557.00
2022-11-24T03:49:00.174Z,97560.00
2022-11-24T03:51:30.183Z,97545.00
2022-11-24T03:54:00.072Z,97563.00
2022-11-24T03:56:30.020Z,97546.00
2022-11-24T03:59:02.501Z,97559.00
2022-11-24T04:01:32.495Z,97568.00
2022-11-24T04:04:02.515Z,97563.00
2022-11-24T04:06:32.574Z,97567.00
2022-11-24T04:09:04.023Z,97566.00
2022-11-24T04:12:01.395Z,97565.00
2022-11-24T04:14:34.088Z,97561.00
2022-11-24T04:17:04.365Z,97562.00
2022-11-24T04:19:34.314Z,97580.00
2022-11-24T04:22:04.344Z,97579.00
2022-11-24T04:24:34.525Z,97591.00
2022-11-24T04:27:04.694Z,97584.00
2022-11-24T04:29:37.414Z,97592.00
2022-11-24T04:32:09.092Z,97589.00
2022-11-24T04:34:39.104Z,97589.00
2022-11-24T04:37:09.079Z,97585.00
2022-11-24T04:39:39.077Z,97599.00
2022-11-24T04:42:09.409Z,97594.00
2022-11-24T04:44:41.984Z,97605.00
2022-11-24T04:47:16.517Z,97601.00
2022-11-24T04:49:46.447Z,97610.00
2022-11-24T04:52:16.478Z,97607.00
2022-11-24T04:54:47.352Z,97617.00
2022-11-24T04:57:18.978Z,97614.00
2022-11-24T04:59:52.170Z,97612.00
2022-11-24T05:02:23.176Z,97628.00
2022-11-24T05:04:53.583Z,97625.00
2022-11-24T05:07:24.696Z,97627.00
2022-11-24T05:10:07.335Z,97628.00
2022-11-24T05:12:37.285Z,97630.00
2022-11-24T05:15:11.318Z,97638.00
2022-11-24T05:17:42.435Z,97635.00
2022-11-24T05:20:13.682Z,97638.00
2022-11-24T05:22:44.307Z,97636.00
2022-11-24T05:25:14.709Z,97647.00
2022-11-24T05:27:45.147Z,97652.00
2022-11-24T05:30:17.855Z,97648.00
2022-11-24T05:32:48.542Z,97648.00
2022-11-24T05:35:19.104Z,97657.00
2022-11-24T05:37:49.000Z,97653.00
2022-11-24T05:40:19.960Z,97650.00
2022-11-24T05:42:49.794Z,97651.00
2022-11-24T05:45:23.996Z,97648.00
2022-11-24T05:47:55.208Z,97656.00
2022-11-24T05:50:26.538Z,97662.00
2022-11-24T05:52:56.501Z,97662.00
2022-11-24T05:58:13.724Z,97658.00
2022-11-24T06:00:46.932Z,97680.00
2022-11-24T06:03:16.914Z,97674.00
2022-11-24T06:05:49.887Z,97675.00
2022-11-24T06:08:20.338Z,97668.00
2022-11-24T06:10:50.177Z,97679.00
2022-11-24T06:13:21.177Z,97679.00
2022-11-24T06:15:54.396Z,97688.00
2022-11-24T06:18:25.048Z,97693.00
2022-11-24T06:21:10.375Z,97684.00
2022-11-24T06:23:41.008Z,97685.00
2022-11-24T06:26:10.852Z,97695.00
2022-11-24T06:28:41.068Z,97700.00
2022-11-24T06:31:14.225Z,97694.00
2022-11-24T06:33:44.449Z,97708.00
2022-11-24T06:36:16.729Z,97715.00
2022-11-24T06:38:46.921Z,97719.00
2022-11-24T06:41:19.426Z,97710.00
2022-11-24T06:43:50.414Z,97709.00
2022-11-24T06:46:23.444Z,97720.00
2022-11-24T06:48:54.618Z,97721.00
2022-11-24T06:51:26.485Z,97726.00
2022-11-24T06:53:57.537Z,97727.00
2022-11-24T06:56:27.546Z,97734.00
2022-11-24T06:58:57.505Z,97725.00
2022-11-24T07:01:32.485Z,97719.00
2022-11-24T07:04:03.527Z,97727.00
2022-11-24T07:06:34.524Z,97729.00
2022-11-24T07:09:05.831Z,97743.00
2022-11-24T07:11:35.659Z,97736.00
2022-11-24T07:14:05.928Z,97753.00
2022-11-24T07:16:39.980Z,97757.00
2022-11-24T07:19:09.920Z,97760.00
2022-11-24T07:21:40.065Z,97759.00
2022-11-24T07:24:10.635Z,97752.00
2022-11-24T07:26:40.613Z,97762.00
2022-11-24T07:29:10.822Z,97770.00
2022-11-24T07:31:44.493Z,97771.00
2022-11-24T07:34:14.932Z,97775.00
2022-11-24T07:36:46.209Z,97773.00
2022-11-24T07:39:16.594Z,97785.00
2022-11-24T07:41:46.727Z,97786.00
2022-11-24T07:44:16.533Z,97798.00
2022-11-24T07:46:51.478Z,97796.00
2022-11-24T07:49:21.958Z,97795.00
2022-11-24T07:51:52.945Z,97794.00
2022-11-24T07:54:23.880Z,97793.00
2022-11-24T07:56:53.833Z,97804.00
2022-11-24T07:59:23.749Z,97805.00
2022-11-24T08:01:57.563Z,97794.00
2022-11-24T08:04:29.450Z,97803.00
2022-11-24T08:07:00.145Z,97801.00
2022-11-24T08:09:30.340Z,97802.00
2022-11-24T08:12:01.007Z,97808.00
2022-11-24T08:14:32.156Z,97805.00
2022-11-24T08:17:05.346Z,97813.00
2022-11-24T08:19:35.293Z,97809.00
2022-11-24T08:22:06.229Z,97813.00
2022-11-24T08:24:37.101Z,97814.00
2022-11-24T08:27:08.228Z,97828.00
2022-11-24T08:29:38.072Z,97827.00
2022-11-24T08:32:14.137Z,97837.00
2022-11-24T08:34:47.104Z,97827.00
2022-11-24T08:37:16.942Z,97830.00
2022-11-24T08:39:46.802Z,97837.00
2022-11-24T08:42:16.924Z,97828.00
2022-11-24T08:44:47.454Z,97841.00
2022-11-24T08:47:21.619Z,97851.00
2022-11-24T08:49:51.420Z,97839.00
2022-11-24T08:52:21.440Z,97844.00
2022-11-24T08:54:51.900Z,97853.00
2022-11-24T08:57:22.645Z,97864.00
2022-11-24T08:59:52.514Z,97860.00
2022-11-24T09:02:25.478Z,97852.00
2022-11-24T09:04:55.338Z,97861.00
2022-11-24T09:07:26.194Z,97854.00
2022-11-24T09:09:56.261Z,97857.00
2022-11-24T09:12:26.099Z,97861.00
2022-11-24T09:14:55.898Z,97856.00
2022-11-24T09:17:29.130Z,97853.00
2022-11-24T09:19:59.673Z,97854.00
2022-11-24T09:22:29.633Z,97860.00
2022-11-24T09:25:00.024Z,97856.00
2022-11-24T09:27:31.552Z,97849.00
2022-11-24T09:30:07.119Z,97855.00
2022-11-24T09:32:40.630Z,97853.00
2022-11-24T09:35:11.723Z,97852.00
2022-11-24T09:37:43.692Z,97864.00
2022-11-24T09:40:15.876Z,97857.00
2022-11-24T09:42:54.901Z,97862.00
2022-11-24T09:45:57.554Z,97856.00
2022-11-24T09:48:30.894Z,97856.00
2022-11-24T09:51:02.634Z,97846.00
2022-11-24T09:53:35.384Z,97852.00
2022-11-24T09:56:13.744Z,97863.00
2022-11-24T09:58:46.783Z,97862.00
2022-11-24T10:01:19.839Z,97856.00
2022-11-24T10:03:53.960Z,97861.00
2022-11-24T10:06:26.790Z,97861.00
2022-11-24T10:09:23.473Z,97862.00
2022-11-24T10:12:01.585Z,97852.00
2022-11-24T10:15:01.935Z,97854.00
2022-11-24T10:17:45.522Z,97854.00
2022-11-24T10:20:27.383Z,97861.00
2022-11-24T10:23:10.615Z,97862.00
2022-11-24T10:25:46.634Z,97860.00
2022-11-24T10:28:18.679Z,97871.00
2022-11-24T10:30:50.083Z,97864.00
2022-11-24T10:33:30.097Z,97863.00
2022-11-24T10:36:09.679Z,97868.00
2022-11-24T10:38:45.373Z,97870.00
2022-11-24T10:41:19.567Z,97871.00
2022-11-24T10:43:49.636Z,97871.00
2022-11-24T10:46:24.409Z,97873.00
2022-11-24T10:48:57.036Z,97862.00
2022-11-24T10:51:52.941Z,97881.00
2022-11-24T10:54:24.653Z,97882.00
2022-11-24T10:56:58.686Z,97875.00
2022-11-24T10:59:35.133Z,97874.00
2022-11-24T11:02:06.918Z,97863.00
2022-11-24T11:04:38.363Z,97874.00
2022-11-24T11:07:21.122Z,97882.00
2022-11-24T11:09:52.178Z,97863.00
2022-11-24T11:12:43.456Z,97866.00
2022-11-24T11:15:29.866Z,97864.00
2022-11-24T11:18:01.615Z,97865.00
2022-11-24T11:20:33.641Z,97869.00
2022-11-24T11:23:17.656Z,97870.00
2022-11-24T11:25:48.536Z,97877.00
2022-11-24T11:28:29.006Z,97866.00
2022-11-24T11:31:19.715Z,97870.00
2022-11-24T11:34:06.138Z,97879.00
2022-11-24T11:36:40.574Z,97875.00
2022-11-24T11:39:23.844Z,97878.00
2022-11-24T11:41:56.425Z,97886.00
2022-11-24T11:44:35.798Z,97883.00
2022-11-24T11:47:16.873Z,97878.00
2022-11-24T11:49:51.107Z,97880.00
2022-11-24T11:52:41.332Z,97894.00
2022-11-24T11:55:26.384Z,97888.00
2022-11-24T11:58:01.697Z,97883.00
2022-11-24T12:00:33.306Z,97881.00
2022-11-24T12:03:23.142Z,97888.00
2022-11-24T12:06:00.306Z,97881.00
2022-11-24T12:09:03.299Z,97886.00
2022-11-24T12:11:37.177Z,97888.00
2022-11-24T12:14:16.606Z,97886.00
2022-11-24T12:16:48.407Z,97885.00
2022-11-24T12:19:50.152Z,97887.00
2022-11-24T12:22:30.284Z,97883.00
2022-11-24T12:25:03.835Z,97888.00
2022-11-24T12:27:43.917Z,97886.00
2022-11-24T12:30:15.924Z,97892.00
2022-11-24T12:33:06.909Z,97888.00
2022-11-24T12:35:40.897Z,97895.00
2022-11-24T12:38:23.894Z,97902.00
2022-11-24T12:44:28.732Z,97907.00
2022-11-24T12:47:04.314Z,97907.00
2022-11-24T12:49:41.438Z,97910.00
2022-11-24T12:52:18.298Z,97907.00
2022-11-24T12:54:48.421Z,97916.00
2022-11-24T12:57:22.379Z,97920.00
2022-11-24T13:00:02.428Z,97920.00
2022-11-24T13:02:41.057Z,97918.00
2022-11-24T13:05:22.721Z,97920.00
2022-11-24T13:07:57.820Z,97922.00
2022-11-24T13:13:30.913Z,97925.00
2022-11-24T13:16:35.551Z,97930.00
2022-11-24T13:19:11.976Z,97930.00
2022-11-24T13:22:13.342Z,97946.00
2022-11-24T13:24:45.419Z,97929.00
2022-11-24T13:27:32.247Z,97935.00
2022-11-24T13:30:02.663Z,97939.00
2022-11-24T13:33:08.225Z,97940.00
2022-11-24T13:35:40.881Z,97945.00
2022-11-24T13:38:41.690Z,97939.00
2022-11-24T13:41:28.030Z,97947.00
2022-11-24T13:44:21.680Z,97951.00
2022-11-24T13:47:06.609Z,97940.00
2022-11-24T13:49:44.201Z,97956.00
2022-11-24T13:52:44.346Z,97942.00
2022-11-24T13:55:28.288Z,97936.00
2022-11-24T13:58:03.221Z,97931.00
2022-11-24T14:00:36.170Z,97930.00
2022-11-24T14:03:10.064Z,97944.00
2022-11-24T14:05:51.472Z,97933.00
2022-11-24T14:08:23.364Z,97939.00
2022-11-24T14:10:53.839Z,97947.00
2022-11-24T14:13:33.036Z,97939.00
2022-11-24T14:16:08.928Z,97943.00
2022-11-24T14:18:40.839Z,97948.00
2022-11-24T14:21:25.957Z,97960.00
2022-11-24T14:23:59.284Z,97963.00
2022-11-24T14:26:35.644Z,97960.00
2022-11-24T14:29:08.658Z,97974.00
2022-11-24T14:31:40.005Z,97973.00
2022-11-24T14:34:17.004Z,97975.00
2022-11-24T14:36:51.103Z,97976.00
2022-11-24T14:39:23.178Z,97975.00
2022-11-24T14:41:56.127Z,97974.00
2022-11-24T14:44:27.966Z,97975.00
2022-11-24T14:47:05.658Z,97988.00
2022-11-24T14:49:37.004Z,97983.00
2022-11-24T14:52:15.780Z,97982.00
2022-11-24T14:54:49.811Z,97984.00
2022-11-24T14:57:34.941Z,97982.00
2022-11-24T15:00:20.483Z,97991.00
2022-11-24T15:02:52.345Z,97996.00
2022-11-24T15:05:24.763Z,97986.00
2022-11-24T15:08:04.229Z,97985.00
2022-11-24T15:10:38.681Z,97987.00
2022-11-24T15:13:21.537Z,97995.00
2022-11-24T15:16:00.556Z,97987.00
2022-11-24T15:18:40.074Z,97999.00
2022-11-24T15:21:15.784Z,97997.00
2022-11-24T15:24:17.101Z,98011.00
2022-11-24T15:26:47.645Z,98000.00
2022-11-24T15:29:18.092Z,98014.00
2022-11-24T15:31:52.543Z,98014.00
2022-11-24T15:34:23.562Z,98021.00
2022-11-24T15:36:54.544Z,98023.00
2022-11-24T15:39:27.317Z,98028.00
2022-11-24T15:41:58.052Z,98018.00
2022-11-24T15:44:28.026Z,98033.00
2022-11-24T15:46:58.876Z,98022.00
2022-11-24T15:49:28.760Z,98028.00
2022-11-24T15:51:58.760Z,98034.00
2022-11-24T15:54:31.402Z,98029.00
2022-11-24T15:57:03.174Z,98035.00
2022-11-24T15:59:34.631Z,98033.00
2022-11-24T16:02:04.904Z,98038.00
2022-11-24T16:04:35.987Z,98040.00
2022-11-24T16:07:07.571Z,98034.00
2022-11-24T16:09:40.517Z,98045.00
2022-11-24T16:12:11.017Z,98045.00
2022-11-24T16:14:40.987Z,98047.00
2022-11-24T16:17:10.908Z,98045.00
2022-11-24T16:19:42.153Z,98038.00
2022-11-24T16:22:12.239Z,98057.00
2022-11-24T16:24:45.721Z,98063.00
2022-11-24T16:27:15.611Z,98067.00
2022-11-24T16:29:45.404Z,98069.00
2022-11-24T16:32:16.381Z,98060.00
2022-11-24T16:34:46.686Z,98064.00
2022-11-24T16:37:16.632Z,98066.00
2022-11-24T16:39:50.454Z,98066.00
2022-11-24T16:42:20.872Z,98062.00
2022-11-24T16:44:52.156Z,98068.00
2022-11-24T16:47:23.446Z,98061.00
2022-11-24T16:49:53.355Z,98070.00
2022-11-24T16:52:24.224Z,98078.00
2022-11-24T16:54:57.924Z,98079.00
2022-11-24T16:57:27.913Z,98082.00
2022-11-24T16:59:57.787Z,98080.00
2022-11-24T17:02:27.799Z,98097.00
2022-11-24T17:04:58.003Z,98099.00
2022-11-24T17:07:27.992Z,98101.00
2022-11-24T17:10:00.716Z,98110.00
2022-11-24T17:12:31.767Z,98105.00
2022-11-24T17:15:31.084Z,98105.00
2022-11-24T17:18:22.304Z,98108.00
2022-11-24T17:20:42.547Z,98097.00
2022-11-24T17:23:13.611Z,98113.00
2022-11-24T17:25:46.183Z,98107.00
2022-11-24T17:28:16.059Z,98125.00
2022-11-24T17:30:45.920Z,98118.00
2022-11-24T17:33:16.020Z,98110.00
2022-11-24T17:35:45.888Z,98128.00
2022-11-24T17:38:15.791Z,98133.00
2022-11-24T17:40:52.517Z,98131.00
2022-11-24T17:43:22.473Z,98131.00
2022-11-24T17:45:56.664Z,98126.00
2022-11-24T17:48:27.013Z,98136.00
2022-11-24T17:51:04.058Z,98125.00
2022-11-24T17:53:34.543Z,98129.00
2022-11-24T17:56:07.539Z,98135.00
2022-11-24T17:58:42.711Z,98132.00
2022-11-24T18:01:13.471Z,98131.00
2022-11-24T18:03:45.857Z,98143.00
2022-11-24T18:06:20.691Z,98140.00
2022-11-24T18:08:51.292Z,98138.00
2022-11-24T18:11:31.075Z,98137.00
2022-11-24T18:14:03.232Z,98150.00
2022-11-24T18:16:34.389Z,98148.00
2022-11-24T18:19:10.994Z,98147.00
2022-11-24T18:21:41.667Z,98151.00
2022-11-24T18:24:13.054Z,98153.00
2022-11-24T18:26:46.702Z,98149.00
2022-11-24T18:29:17.819Z,98156.00
2022-11-24T18:31:48.082Z,98153.00
2022-11-24T18:34:17.988Z,98150.00
2022-11-24T18:36:52.126Z,98156.00
2022-11-24T18:39:22.225Z,98141.00
2022-11-24T18:41:55.404Z,98156.00
2022-11-24T18:44:25.404Z,98157.00
2022-11-24T18:46:55.421Z,98158.00
2022-11-24T18:49:25.285Z,98156.00
2022-11-24T18:51:55.590Z,98160.00
2022-11-24T18:54:25.814Z,98158.00
2022-11-24T18:57:03.266Z,98156.00
2022-11-24T18:59:33.755Z,98152.00
2022-11-24T19:02:03.698Z,98157.00
2022-11-24T19:04:34.110Z,98153.00
2022-11-24T19:07:04.412Z,98148.00
2022-11-24T19:09:34.863Z,98152.00
2022-11-24T19:12:10.355Z,98152.00
2022-11-24T19:14:41.672Z,98154.00
2022-11-24T19:17:12.644Z,98156.00
2022-11-24T19:19:43.030Z,98163.00
2022-11-24T19:22:13.449Z,98167.00
2022-11-24T19:24:44.426Z,98171.00
2022-11-24T19:27:18.584Z,98172.00
2022-11-24T19:29:48.455Z,98175.00
2022-11-24T19:32:19.652Z,98189.00
2022-11-24T19:34:49.600Z,98175.00
2022-11-24T19:37:20.332Z,98184.00
2022-11-24T19:39:50.254Z,98182.00
2022-11-24T19:42:22.792Z,98190.00
2022-11-24T19:44:56.416Z,98188.00
2022-11-24T19:47:27.950Z,98194.00
2022-11-24T19:49:58.931Z,98190.00
2022-11-24T19:52:28.977Z,98186.00
2022-11-24T19:54:59.835Z,98196.00
2022-11-24T19:57:32.954Z,98190.00
2022-11-24T20:00:02.843Z,98201.00
2022-11-24T20:02:34.276Z,98193.00
2022-11-24T20:05:04.356Z,98204.00
2022-11-24T20:07:35.223Z,98207.00
2022-11-24T20:10:07.898Z,98206.00
2022-11-24T20:12:40.707Z,98215.00
2022-11-24T20:15:12.330Z,98216.00
2022-11-24T20:17:42.220Z,98227.00
2022-11-24T20:20:13.181Z,98226.00
2022-11-24T20:22:44.388Z,98230.00
2022-11-24T20:25:14.885Z,98232.00
2022-11-24T20:27:47.377Z,98227.00
2022-11-24T20:30:18.227Z,98227.00
2022-11-24T20:32:48.133Z,98235.00
2022-11-24T20:35:18.549Z,98230.00
2022-11-24T20:37:49.493Z,98230.00
2022-11-24T20:40:20.221Z,98239.00
2022-11-24T20:42:53.732Z,98237.00
2022-11-24T20:45:24.780Z,98240.00
2022-11-24T20:47:54.657Z,98239.00
2022-11-24T20:50:24.641Z,98242.00
2022-11-24T20:52:55.519Z,98246.00
2022-11-24T20:55:25.459Z,98252.00
2022-11-24T20:57:57.952Z,98256.00
2022-11-24T21:00:28.529Z,98255.00
2022-11-24T21:02:59.167Z,98260.00
2022-11-24T21:05:29.054Z,98261.00
2022-11-24T21:07:59.170Z,98265.00
2022-11-24T21:10:29.544Z,98266.00
2022-11-24T21:13:02.283Z,98267.00
2022-11-24T21:15:32.193Z,98269.00
2022-11-24T21:18:02.108Z,98279.00
2022-11-24T21:20:32.492Z,98274.00
2022-11-24T21:23:03.295Z,98269.00
2022-11-24T21:25:33.383Z,98270.00
2022-11-24T21:28:08.117Z,98266.00
2022-11-24T21:30:38.958Z,98273.00
2022-11-24T21:33:09.372Z,98282.00
2022-11-24T21:35:39.742Z,98280.00
2022-11-24T21:38:10.716Z,98283.00
2022-11-24T21:40:41.011Z,98282.00
2022-11-24T21:43:16.319Z,98281.00
2022-11-24T21:45:47.322Z,98282.00
2022-11-24T21:48:17.247Z,98287.00
2022-11-24T21:50:47.159Z,98279.00
2022-11-24T21:53:17.054Z,98279.00
2022-11-24T21:55:46.968Z,98275.00
2022-11-24T21:58:19.500Z,98290.00
2022-11-24T22:00:49.450Z,98283.00
2022-11-24T22:03:20.080Z,98287.00
2022-11-24T22:05:56.502Z,98284.00
2022-11-24T22:08:28.229Z,98291.00
2022-11-24T22:11:03.640Z,98289.00
2022-11-24T22:13:36.294Z,98298.00
2022-11-24T22:16:08.873Z,98294.00
2022-11-24T22:18:39.967Z,98293.00
2022-11-24T22:21:11.230Z,98297.00
2022-11-24T22:23:41.195Z,98290.00
2022-11-24T22:26:14.472Z,98301.00
2022-11-24T22:28:47.975Z,98289.00
2022-11-24T22:31:19.927Z,98298.00
2022-11-24T22:33:50.924Z,98293.00
2022-11-24T22:36:22.864Z,98297.00
2022-11-24T22:38:57.327Z,98299.00
2022-11-24T22:41:27.735Z,98300.00
2022-11-24T22:44:00.360Z,98299.00
2022-11-24T22:46:31.218Z,98301.00
2022-11-24T22:49:02.168Z,98307.00
2022-11-24T22:51:34.795Z,98302.00
2022-11-24T22:54:06.643Z,98306.00
2022-11-24T22:56:36.644Z,98314.00
2022-11-24T22:59:09.389Z,98307.00
2022-11-24T23:01:39.317Z,98311.00
2022-11-24T23:04:09.220Z,98305.00
2022-11-24T23:06:39.690Z,98310.00
2022-11-24T23:09:10.945Z,98315.00
2022-11-24T23:11:42.379Z,98321.00
2022-11-24T23:14:18.678Z,98321.00
2022-11-24T23:16:49.457Z,98326.00
2022-11-24T23:19:20.099Z,98309.00
2022-11-24T23:21:49.949Z,98310.00
2022-11-24T23:24:20.858Z,98318.00
2022-11-24T23:26:50.991Z,98319.00
2022-11-24T23:29:23.560Z,98319.00
2022-11-24T23:31:53.482Z,98318.00
2022-11-24T23:34:23.449Z,98321.00
2022-11-24T23:36:53.411Z,98320.00
2022-11-24T23:39:24.423Z,98323.00
2022-11-24T23:41:54.269Z,98326.00
2022-11-24T23:44:28.009Z,98322.00
2022-11-24T23:46:57.888Z,98314.00
2022-11-24T23:49:27.744Z,98316.00
2022-11-24T23:51:57.588Z,98320.00
2022-11-24T23:54:27.479Z,98306.00
2022-11-24T23:56:57.335Z,98325.00
2022-11-24T23:59:29.847Z,98313.00
